sensor_id;sensor_type;location;lat;lon;timestamp;temperature;humidity
65692;DHT22;52411;52.716;6.696;2023-05-07T00:01:37;14.40;99.90
65692;DHT22;52411;52.716;6.696;2023-05-07T00:04:03;14.40;99.90
65692;DHT22;52411;52.716;6.696;2023-05-07T00:06:29;14.40;99.90
65692;DHT22;52411;52.716;6.696;2023-05-07T00:08:55;14.30;99.90
65692;DHT22;52411;52.716;6.696;2023-05-07T00:11:21;14.30;99.90
65692;DHT22;52411;52.716;6.696;2023-05-07T00:13:47;14.30;99.90
65692;DHT22;52411;52.716;6.696;2023-05-07T00:16:12;14.30;99.90
65692;DHT22;52411;52.716;6.696;2023-05-07T00:18:38;14.30;99.90
65692;DHT22;52411;52.716;6.696;2023-05-07T00:21:04;14.30;99.90
65692;DHT22;52411;52.716;6.696;2023-05-07T00:23:29;14.20;99.90
65692;DHT22;52411;52.716;6.696;2023-05-07T00:25:55;14.20;99.90
65692;DHT22;52411;52.716;6.696;2023-05-07T00:28:20;14.20;99.90
65692;DHT22;52411;52.716;6.696;2023-05-07T00:30:46;14.20;99.90
65692;DHT22;52411;52.716;6.696;2023-05-07T00:33:11;14.20;99.90
65692;DHT22;52411;52.716;6.696;2023-05-07T00:35:37;14.20;99.90
65692;DHT22;52411;52.716;6.696;2023-05-07T00:38:02;14.10;99.90
65692;DHT22;52411;52.716;6.696;2023-05-07T00:40:28;14.10;99.90
65692;DHT22;52411;52.716;6.696;2023-05-07T00:42:53;14.10;99.90
65692;DHT22;52411;52.716;6.696;2023-05-07T00:45:24;14.10;99.90
65692;DHT22;52411;52.716;6.696;2023-05-07T00:47:51;14.00;99.90
65692;DHT22;52411;52.716;6.696;2023-05-07T00:50:16;14.00;99.90
65692;DHT22;52411;52.716;6.696;2023-05-07T00:52:44;13.90;99.90
65692;DHT22;52411;52.716;6.696;2023-05-07T00:55:09;13.90;99.90
65692;DHT22;52411;52.716;6.696;2023-05-07T00:57:39;13.90;99.90
65692;DHT22;52411;52.716;6.696;2023-05-07T01:00:05;13.90;99.90
65692;DHT22;52411;52.716;6.696;2023-05-07T01:02:31;13.80;99.90
65692;DHT22;52411;52.716;6.696;2023-05-07T01:04:56;13.80;99.90
65692;DHT22;52411;52.716;6.696;2023-05-07T01:07:22;13.80;99.90
65692;DHT22;52411;52.716;6.696;2023-05-07T01:09:48;13.70;99.90
65692;DHT22;52411;52.716;6.696;2023-05-07T01:12:14;13.60;99.90
65692;DHT22;52411;52.716;6.696;2023-05-07T01:14:40;13.60;99.90
65692;DHT22;52411;52.716;6.696;2023-05-07T01:17:05;13.60;99.90
65692;DHT22;52411;52.716;6.696;2023-05-07T01:19:31;13.50;99.90
65692;DHT22;52411;52.716;6.696;2023-05-07T01:22:03;13.50;99.90
65692;DHT22;52411;52.716;6.696;2023-05-07T01:24:30;13.50;99.90
65692;DHT22;52411;52.716;6.696;2023-05-07T01:26:55;13.40;99.90
65692;DHT22;52411;52.716;6.696;2023-05-07T01:29:21;13.30;99.90
65692;DHT22;52411;52.716;6.696;2023-05-07T01:31:46;13.30;99.90
65692;DHT22;52411;52.716;6.696;2023-05-07T01:34:12;13.20;99.90
65692;DHT22;52411;52.716;6.696;2023-05-07T01:36:38;13.10;99.90
65692;DHT22;52411;52.716;6.696;2023-05-07T01:39:04;13.00;99.90
65692;DHT22;52411;52.716;6.696;2023-05-07T01:41:30;13.00;99.90
65692;DHT22;52411;52.716;6.696;2023-05-07T01:43:56;13.00;99.90
65692;DHT22;52411;52.716;6.696;2023-05-07T01:46:23;12.90;99.90
65692;DHT22;52411;52.716;6.696;2023-05-07T01:48:49;12.80;99.90
65692;DHT22;52411;52.716;6.696;2023-05-07T01:51:15;12.80;99.90
65692;DHT22;52411;52.716;6.696;2023-05-07T01:53:41;12.80;99.90
65692;DHT22;52411;52.716;6.696;2023-05-07T01:56:07;12.70;99.90
65692;DHT22;52411;52.716;6.696;2023-05-07T01:58:32;12.70;99.90
65692;DHT22;52411;52.716;6.696;2023-05-07T02:00:58;12.60;99.90
65692;DHT22;52411;52.716;6.696;2023-05-07T02:03:23;12.60;99.90
65692;DHT22;52411;52.716;6.696;2023-05-07T02:05:49;12.60;99.90
65692;DHT22;52411;52.716;6.696;2023-05-07T02:08:14;12.60;99.90
65692;DHT22;52411;52.716;6.696;2023-05-07T02:10:40;12.50;99.90
65692;DHT22;52411;52.716;6.696;2023-05-07T02:13:05;12.50;99.90
65692;DHT22;52411;52.716;6.696;2023-05-07T02:15:31;12.50;99.90
65692;DHT22;52411;52.716;6.696;2023-05-07T02:18:06;12.40;99.90
65692;DHT22;52411;52.716;6.696;2023-05-07T02:20:32;12.40;99.90
65692;DHT22;52411;52.716;6.696;2023-05-07T02:22:57;12.40;99.90
65692;DHT22;52411;52.716;6.696;2023-05-07T02:25:23;12.40;99.90
65692;DHT22;52411;52.716;6.696;2023-05-07T02:27:48;12.40;99.90
65692;DHT22;52411;52.716;6.696;2023-05-07T02:30:14;12.40;99.90
65692;DHT22;52411;52.716;6.696;2023-05-07T02:32:39;12.30;99.90
65692;DHT22;52411;52.716;6.696;2023-05-07T02:35:05;12.30;99.90
65692;DHT22;52411;52.716;6.696;2023-05-07T02:37:31;12.30;99.90
65692;DHT22;52411;52.716;6.696;2023-05-07T02:39:56;12.30;99.90
65692;DHT22;52411;52.716;6.696;2023-05-07T02:42:22;12.30;99.90
65692;DHT22;52411;52.716;6.696;2023-05-07T02:44:47;12.30;99.90
65692;DHT22;52411;52.716;6.696;2023-05-07T02:47:13;12.20;99.90
65692;DHT22;52411;52.716;6.696;2023-05-07T02:49:38;12.20;99.90
65692;DHT22;52411;52.716;6.696;2023-05-07T02:52:04;12.20;99.90
65692;DHT22;52411;52.716;6.696;2023-05-07T02:54:30;12.20;99.90
65692;DHT22;52411;52.716;6.696;2023-05-07T02:56:55;12.20;99.90
65692;DHT22;52411;52.716;6.696;2023-05-07T02:59:21;12.20;99.90
65692;DHT22;52411;52.716;6.696;2023-05-07T03:01:47;12.20;99.90
65692;DHT22;52411;52.716;6.696;2023-05-07T03:04:13;12.10;99.90
65692;DHT22;52411;52.716;6.696;2023-05-07T03:06:39;12.10;99.90
65692;DHT22;52411;52.716;6.696;2023-05-07T03:09:04;12.10;99.90
65692;DHT22;52411;52.716;6.696;2023-05-07T03:11:30;12.10;99.90
65692;DHT22;52411;52.716;6.696;2023-05-07T03:13:55;12.10;99.90
65692;DHT22;52411;52.716;6.696;2023-05-07T03:16:21;12.00;99.90
65692;DHT22;52411;52.716;6.696;2023-05-07T03:18:46;12.10;99.90
65692;DHT22;52411;52.716;6.696;2023-05-07T03:21:12;12.10;99.90
65692;DHT22;52411;52.716;6.696;2023-05-07T03:23:37;12.00;99.90
65692;DHT22;52411;52.716;6.696;2023-05-07T03:26:03;12.00;99.90
65692;DHT22;52411;52.716;6.696;2023-05-07T03:28:28;12.00;99.90
65692;DHT22;52411;52.716;6.696;2023-05-07T03:30:54;12.00;99.90
65692;DHT22;52411;52.716;6.696;2023-05-07T03:33:19;12.00;99.90
65692;DHT22;52411;52.716;6.696;2023-05-07T03:35:45;12.00;99.90
65692;DHT22;52411;52.716;6.696;2023-05-07T03:38:10;11.90;99.90
65692;DHT22;52411;52.716;6.696;2023-05-07T03:40:36;11.90;99.90
65692;DHT22;52411;52.716;6.696;2023-05-07T03:43:01;12.00;99.90
65692;DHT22;52411;52.716;6.696;2023-05-07T03:45:27;11.90;99.90
65692;DHT22;52411;52.716;6.696;2023-05-07T03:47:52;11.90;99.90
65692;DHT22;52411;52.716;6.696;2023-05-07T03:50:19;11.90;99.90
65692;DHT22;52411;52.716;6.696;2023-05-07T03:52:45;11.90;99.90
65692;DHT22;52411;52.716;6.696;2023-05-07T03:55:10;11.90;99.90
65692;DHT22;52411;52.716;6.696;2023-05-07T03:57:36;11.90;99.90
65692;DHT22;52411;52.716;6.696;2023-05-07T04:00:01;11.90;99.90
65692;DHT22;52411;52.716;6.696;2023-05-07T04:02:27;11.90;99.90
65692;DHT22;52411;52.716;6.696;2023-05-07T04:04:53;11.90;99.90
65692;DHT22;52411;52.716;6.696;2023-05-07T04:07:19;11.90;99.90
65692;DHT22;52411;52.716;6.696;2023-05-07T04:09:44;11.90;99.90
65692;DHT22;52411;52.716;6.696;2023-05-07T04:12:10;11.90;99.90
65692;DHT22;52411;52.716;6.696;2023-05-07T04:14:35;11.90;99.90
65692;DHT22;52411;52.716;6.696;2023-05-07T04:17:01;11.90;99.90
65692;DHT22;52411;52.716;6.696;2023-05-07T04:19:26;11.90;99.90
65692;DHT22;52411;52.716;6.696;2023-05-07T04:21:52;11.90;99.90
65692;DHT22;52411;52.716;6.696;2023-05-07T04:24:17;11.90;99.90
65692;DHT22;52411;52.716;6.696;2023-05-07T04:26:43;11.90;99.90
65692;DHT22;52411;52.716;6.696;2023-05-07T04:29:08;11.90;99.90
65692;DHT22;52411;52.716;6.696;2023-05-07T04:31:34;11.90;99.90
65692;DHT22;52411;52.716;6.696;2023-05-07T04:33:59;11.90;99.90
65692;DHT22;52411;52.716;6.696;2023-05-07T04:36:25;11.90;99.90
65692;DHT22;52411;52.716;6.696;2023-05-07T04:38:53;11.90;99.90
65692;DHT22;52411;52.716;6.696;2023-05-07T04:41:18;11.90;99.90
65692;DHT22;52411;52.716;6.696;2023-05-07T04:43:44;11.90;99.90
65692;DHT22;52411;52.716;6.696;2023-05-07T04:46:09;12.00;99.90
65692;DHT22;52411;52.716;6.696;2023-05-07T04:48:35;12.00;99.90
65692;DHT22;52411;52.716;6.696;2023-05-07T04:51:00;12.00;99.90
65692;DHT22;52411;52.716;6.696;2023-05-07T04:53:26;12.00;99.90
65692;DHT22;52411;52.716;6.696;2023-05-07T04:55:55;12.00;99.90
65692;DHT22;52411;52.716;6.696;2023-05-07T04:58:21;12.00;99.90
65692;DHT22;52411;52.716;6.696;2023-05-07T05:00:47;12.00;99.90
65692;DHT22;52411;52.716;6.696;2023-05-07T05:03:12;12.00;99.90
65692;DHT22;52411;52.716;6.696;2023-05-07T05:05:37;12.00;99.90
65692;DHT22;52411;52.716;6.696;2023-05-07T05:08:03;12.00;99.90
65692;DHT22;52411;52.716;6.696;2023-05-07T05:10:28;12.00;99.90
65692;DHT22;52411;52.716;6.696;2023-05-07T05:12:54;12.10;99.90
65692;DHT22;52411;52.716;6.696;2023-05-07T05:15:20;12.10;99.90
65692;DHT22;52411;52.716;6.696;2023-05-07T05:17:45;12.10;99.90
65692;DHT22;52411;52.716;6.696;2023-05-07T05:20:11;12.10;99.90
65692;DHT22;52411;52.716;6.696;2023-05-07T05:22:37;12.20;99.90
65692;DHT22;52411;52.716;6.696;2023-05-07T05:25:02;12.20;99.90
65692;DHT22;52411;52.716;6.696;2023-05-07T05:27:28;12.20;99.90
65692;DHT22;52411;52.716;6.696;2023-05-07T05:29:54;12.30;99.90
65692;DHT22;52411;52.716;6.696;2023-05-07T05:32:19;12.20;99.90
65692;DHT22;52411;52.716;6.696;2023-05-07T05:34:45;12.30;99.90
65692;DHT22;52411;52.716;6.696;2023-05-07T05:37:10;12.30;99.90
65692;DHT22;52411;52.716;6.696;2023-05-07T05:39:36;12.30;99.90
65692;DHT22;52411;52.716;6.696;2023-05-07T05:42:01;12.40;99.90
65692;DHT22;52411;52.716;6.696;2023-05-07T05:44:27;12.30;99.90
65692;DHT22;52411;52.716;6.696;2023-05-07T05:46:52;12.40;99.90
65692;DHT22;52411;52.716;6.696;2023-05-07T05:49:20;12.40;99.90
65692;DHT22;52411;52.716;6.696;2023-05-07T05:51:46;12.50;99.90
65692;DHT22;52411;52.716;6.696;2023-05-07T05:54:11;12.50;99.90
65692;DHT22;52411;52.716;6.696;2023-05-07T05:56:37;12.60;99.90
65692;DHT22;52411;52.716;6.696;2023-05-07T05:59:02;12.60;99.90
65692;DHT22;52411;52.716;6.696;2023-05-07T06:01:28;12.60;99.90
65692;DHT22;52411;52.716;6.696;2023-05-07T06:03:53;12.70;99.90
65692;DHT22;52411;52.716;6.696;2023-05-07T06:06:21;12.60;99.90
65692;DHT22;52411;52.716;6.696;2023-05-07T06:08:46;12.70;99.90
65692;DHT22;52411;52.716;6.696;2023-05-07T06:11:12;12.70;99.90
65692;DHT22;52411;52.716;6.696;2023-05-07T06:13:37;12.70;99.90
65692;DHT22;52411;52.716;6.696;2023-05-07T06:16:03;12.70;99.90
65692;DHT22;52411;52.716;6.696;2023-05-07T06:18:28;12.80;99.90
65692;DHT22;52411;52.716;6.696;2023-05-07T06:20:54;12.70;99.90
65692;DHT22;52411;52.716;6.696;2023-05-07T06:23:19;12.70;99.90
65692;DHT22;52411;52.716;6.696;2023-05-07T06:25:48;12.70;99.90
65692;DHT22;52411;52.716;6.696;2023-05-07T06:28:15;12.80;99.90
65692;DHT22;52411;52.716;6.696;2023-05-07T06:30:40;12.80;99.90
65692;DHT22;52411;52.716;6.696;2023-05-07T06:33:06;12.90;99.90
65692;DHT22;52411;52.716;6.696;2023-05-07T06:35:31;12.90;99.90
65692;DHT22;52411;52.716;6.696;2023-05-07T06:37:57;12.90;99.90
65692;DHT22;52411;52.716;6.696;2023-05-07T06:40:22;12.90;99.90
65692;DHT22;52411;52.716;6.696;2023-05-07T06:42:48;13.00;99.90
65692;DHT22;52411;52.716;6.696;2023-05-07T06:45:13;13.00;99.90
65692;DHT22;52411;52.716;6.696;2023-05-07T06:47:39;13.00;99.90
65692;DHT22;52411;52.716;6.696;2023-05-07T06:50:04;13.10;99.90
65692;DHT22;52411;52.716;6.696;2023-05-07T06:52:30;13.10;99.90
65692;DHT22;52411;52.716;6.696;2023-05-07T06:54:55;13.10;99.90
65692;DHT22;52411;52.716;6.696;2023-05-07T06:57:21;13.20;99.90
65692;DHT22;52411;52.716;6.696;2023-05-07T06:59:46;13.10;99.90
65692;DHT22;52411;52.716;6.696;2023-05-07T07:02:12;13.20;99.90
65692;DHT22;52411;52.716;6.696;2023-05-07T07:04:37;13.30;99.90
65692;DHT22;52411;52.716;6.696;2023-05-07T07:07:03;13.30;99.90
65692;DHT22;52411;52.716;6.696;2023-05-07T07:09:28;13.40;99.90
65692;DHT22;52411;52.716;6.696;2023-05-07T07:11:54;13.40;99.90
65692;DHT22;52411;52.716;6.696;2023-05-07T07:14:19;13.40;99.90
65692;DHT22;52411;52.716;6.696;2023-05-07T07:16:45;13.40;99.90
65692;DHT22;52411;52.716;6.696;2023-05-07T07:19:12;13.50;99.90
65692;DHT22;52411;52.716;6.696;2023-05-07T07:21:37;13.60;99.90
65692;DHT22;52411;52.716;6.696;2023-05-07T07:24:03;13.70;99.90
65692;DHT22;52411;52.716;6.696;2023-05-07T07:26:28;13.80;99.90
65692;DHT22;52411;52.716;6.696;2023-05-07T07:28:54;14.00;99.90
65692;DHT22;52411;52.716;6.696;2023-05-07T07:31:19;14.10;99.90
65692;DHT22;52411;52.716;6.696;2023-05-07T07:33:45;14.20;99.90
65692;DHT22;52411;52.716;6.696;2023-05-07T07:36:10;14.30;99.90
65692;DHT22;52411;52.716;6.696;2023-05-07T07:38:36;14.40;99.90
65692;DHT22;52411;52.716;6.696;2023-05-07T07:41:01;14.60;99.90
65692;DHT22;52411;52.716;6.696;2023-05-07T07:43:27;14.60;99.90
65692;DHT22;52411;52.716;6.696;2023-05-07T07:45:53;14.70;99.90
65692;DHT22;52411;52.716;6.696;2023-05-07T07:48:18;14.80;99.90
65692;DHT22;52411;52.716;6.696;2023-05-07T07:50:44;14.90;99.90
65692;DHT22;52411;52.716;6.696;2023-05-07T07:53:10;14.90;99.90
65692;DHT22;52411;52.716;6.696;2023-05-07T07:55:39;14.90;99.90
65692;DHT22;52411;52.716;6.696;2023-05-07T07:58:05;14.90;99.90
65692;DHT22;52411;52.716;6.696;2023-05-07T08:00:30;15.00;99.90
65692;DHT22;52411;52.716;6.696;2023-05-07T08:02:56;15.20;99.90
65692;DHT22;52411;52.716;6.696;2023-05-07T08:05:22;15.40;99.90
65692;DHT22;52411;52.716;6.696;2023-05-07T08:07:47;15.50;99.90
65692;DHT22;52411;52.716;6.696;2023-05-07T08:10:17;15.60;99.90
65692;DHT22;52411;52.716;6.696;2023-05-07T08:12:47;15.60;99.90
65692;DHT22;52411;52.716;6.696;2023-05-07T08:15:12;15.70;99.90
65692;DHT22;52411;52.716;6.696;2023-05-07T08:17:38;15.80;99.90
65692;DHT22;52411;52.716;6.696;2023-05-07T08:20:04;16.00;99.90
65692;DHT22;52411;52.716;6.696;2023-05-07T08:22:29;16.00;99.90
65692;DHT22;52411;52.716;6.696;2023-05-07T08:24:55;16.10;99.90
65692;DHT22;52411;52.716;6.696;2023-05-07T08:27:21;16.10;99.90
65692;DHT22;52411;52.716;6.696;2023-05-07T08:29:46;16.10;99.90
65692;DHT22;52411;52.716;6.696;2023-05-07T08:32:13;16.30;99.90
65692;DHT22;52411;52.716;6.696;2023-05-07T08:34:38;16.40;99.90
65692;DHT22;52411;52.716;6.696;2023-05-07T08:37:04;16.30;99.90
65692;DHT22;52411;52.716;6.696;2023-05-07T08:39:29;16.20;99.90
65692;DHT22;52411;52.716;6.696;2023-05-07T08:41:55;16.20;99.90
65692;DHT22;52411;52.716;6.696;2023-05-07T08:44:22;16.30;99.90
65692;DHT22;52411;52.716;6.696;2023-05-07T08:46:48;16.20;99.90
65692;DHT22;52411;52.716;6.696;2023-05-07T08:49:16;16.40;99.90
65692;DHT22;52411;52.716;6.696;2023-05-07T08:51:42;16.60;99.90
65692;DHT22;52411;52.716;6.696;2023-05-07T08:54:07;16.70;99.90
65692;DHT22;52411;52.716;6.696;2023-05-07T08:56:34;16.70;99.90
65692;DHT22;52411;52.716;6.696;2023-05-07T08:58:59;16.70;99.90
65692;DHT22;52411;52.716;6.696;2023-05-07T09:01:25;16.80;99.90
65692;DHT22;52411;52.716;6.696;2023-05-07T09:03:51;16.60;99.90
65692;DHT22;52411;52.716;6.696;2023-05-07T09:06:17;16.70;99.90
65692;DHT22;52411;52.716;6.696;2023-05-07T09:08:48;16.90;99.90
65692;DHT22;52411;52.716;6.696;2023-05-07T09:11:14;17.00;99.90
65692;DHT22;52411;52.716;6.696;2023-05-07T09:13:39;17.00;99.90
65692;DHT22;52411;52.716;6.696;2023-05-07T09:16:11;17.00;99.90
65692;DHT22;52411;52.716;6.696;2023-05-07T09:18:43;17.00;99.90
65692;DHT22;52411;52.716;6.696;2023-05-07T09:21:10;17.20;99.90
65692;DHT22;52411;52.716;6.696;2023-05-07T09:23:36;17.20;99.90
65692;DHT22;52411;52.716;6.696;2023-05-07T09:26:01;17.40;99.90
65692;DHT22;52411;52.716;6.696;2023-05-07T09:28:27;17.60;99.90
65692;DHT22;52411;52.716;6.696;2023-05-07T09:30:52;17.70;99.90
65692;DHT22;52411;52.716;6.696;2023-05-07T09:33:18;17.70;99.90
65692;DHT22;52411;52.716;6.696;2023-05-07T09:35:43;17.50;99.90
65692;DHT22;52411;52.716;6.696;2023-05-07T09:38:09;17.60;99.90
65692;DHT22;52411;52.716;6.696;2023-05-07T09:40:34;17.50;99.90
65692;DHT22;52411;52.716;6.696;2023-05-07T09:43:10;17.60;99.90
65692;DHT22;52411;52.716;6.696;2023-05-07T09:45:36;17.50;99.90
65692;DHT22;52411;52.716;6.696;2023-05-07T09:48:02;17.50;99.90
65692;DHT22;52411;52.716;6.696;2023-05-07T09:50:32;17.40;99.90
65692;DHT22;52411;52.716;6.696;2023-05-07T09:52:58;17.40;99.90
65692;DHT22;52411;52.716;6.696;2023-05-07T09:55:23;17.50;99.90
65692;DHT22;52411;52.716;6.696;2023-05-07T09:57:50;17.50;99.90
65692;DHT22;52411;52.716;6.696;2023-05-07T10:00:16;17.70;99.90
65692;DHT22;52411;52.716;6.696;2023-05-07T10:02:42;17.50;99.90
65692;DHT22;52411;52.716;6.696;2023-05-07T10:05:14;17.60;99.90
65692;DHT22;52411;52.716;6.696;2023-05-07T10:07:40;17.70;99.90
65692;DHT22;52411;52.716;6.696;2023-05-07T10:10:06;17.90;99.90
65692;DHT22;52411;52.716;6.696;2023-05-07T10:12:31;18.10;99.90
65692;DHT22;52411;52.716;6.696;2023-05-07T10:15:03;18.20;99.90
65692;DHT22;52411;52.716;6.696;2023-05-07T10:17:29;18.30;99.90
65692;DHT22;52411;52.716;6.696;2023-05-07T10:19:54;18.40;99.90
65692;DHT22;52411;52.716;6.696;2023-05-07T10:22:20;18.50;99.90
65692;DHT22;52411;52.716;6.696;2023-05-07T10:24:46;18.50;99.90
65692;DHT22;52411;52.716;6.696;2023-05-07T10:27:14;18.60;99.90
65692;DHT22;52411;52.716;6.696;2023-05-07T10:34:53;18.70;99.90
65692;DHT22;52411;52.716;6.696;2023-05-07T10:37:20;18.80;99.90
65692;DHT22;52411;52.716;6.696;2023-05-07T10:39:46;18.90;99.90
65692;DHT22;52411;52.716;6.696;2023-05-07T10:42:12;19.00;99.90
65692;DHT22;52411;52.716;6.696;2023-05-07T10:44:38;19.10;99.90
65692;DHT22;52411;52.716;6.696;2023-05-07T10:47:04;19.20;99.90
65692;DHT22;52411;52.716;6.696;2023-05-07T10:49:30;19.40;99.90
65692;DHT22;52411;52.716;6.696;2023-05-07T10:52:10;19.40;99.90
65692;DHT22;52411;52.716;6.696;2023-05-07T10:54:36;19.40;99.90
65692;DHT22;52411;52.716;6.696;2023-05-07T10:57:32;19.60;99.90
65692;DHT22;52411;52.716;6.696;2023-05-07T10:59:47;19.50;99.90
65692;DHT22;52411;52.716;6.696;2023-05-07T11:02:12;19.70;99.90
65692;DHT22;52411;52.716;6.696;2023-05-07T11:04:39;19.70;99.90
65692;DHT22;52411;52.716;6.696;2023-05-07T11:15:05;19.60;99.90
65692;DHT22;52411;52.716;6.696;2023-05-07T11:17:31;19.60;99.90
65692;DHT22;52411;52.716;6.696;2023-05-07T11:19:59;19.70;99.90
65692;DHT22;52411;52.716;6.696;2023-05-07T11:25:01;19.80;99.90
65692;DHT22;52411;52.716;6.696;2023-05-07T11:27:27;19.80;99.90
65692;DHT22;52411;52.716;6.696;2023-05-07T11:29:52;19.90;99.90
65692;DHT22;52411;52.716;6.696;2023-05-07T11:32:28;20.10;99.90
65692;DHT22;52411;52.716;6.696;2023-05-07T11:34:54;20.30;99.90
65692;DHT22;52411;52.716;6.696;2023-05-07T11:37:20;20.50;99.90
65692;DHT22;52411;52.716;6.696;2023-05-07T11:39:46;20.50;99.90
65692;DHT22;52411;52.716;6.696;2023-05-07T11:44:56;20.20;99.90
65692;DHT22;52411;52.716;6.696;2023-05-07T11:47:21;20.00;99.90
65692;DHT22;52411;52.716;6.696;2023-05-07T11:49:48;19.80;99.90
65692;DHT22;52411;52.716;6.696;2023-05-07T11:52:13;19.90;99.90
65692;DHT22;52411;52.716;6.696;2023-05-07T11:54:39;19.90;99.90
65692;DHT22;52411;52.716;6.696;2023-05-07T11:57:05;20.10;99.90
65692;DHT22;52411;52.716;6.696;2023-05-07T11:59:37;20.30;99.90
65692;DHT22;52411;52.716;6.696;2023-05-07T12:02:03;20.50;99.90
65692;DHT22;52411;52.716;6.696;2023-05-07T12:04:29;20.70;99.90
65692;DHT22;52411;52.716;6.696;2023-05-07T12:06:55;20.80;99.90
65692;DHT22;52411;52.716;6.696;2023-05-07T12:09:23;20.80;99.90
65692;DHT22;52411;52.716;6.696;2023-05-07T12:11:49;20.90;99.90
65692;DHT22;52411;52.716;6.696;2023-05-07T12:14:14;20.70;99.90
65692;DHT22;52411;52.716;6.696;2023-05-07T12:16:41;20.40;99.90
65692;DHT22;52411;52.716;6.696;2023-05-07T12:19:07;20.50;99.90
65692;DHT22;52411;52.716;6.696;2023-05-07T12:21:34;20.50;99.90
65692;DHT22;52411;52.716;6.696;2023-05-07T12:23:59;20.50;99.90
65692;DHT22;52411;52.716;6.696;2023-05-07T12:26:25;20.60;99.90
65692;DHT22;52411;52.716;6.696;2023-05-07T12:28:51;20.80;99.90
65692;DHT22;52411;52.716;6.696;2023-05-07T12:31:16;20.90;99.90
65692;DHT22;52411;52.716;6.696;2023-05-07T12:33:42;20.80;99.90
65692;DHT22;52411;52.716;6.696;2023-05-07T12:36:07;20.20;99.90
65692;DHT22;52411;52.716;6.696;2023-05-07T12:38:39;20.10;99.90
65692;DHT22;52411;52.716;6.696;2023-05-07T12:41:06;20.00;99.90
65692;DHT22;52411;52.716;6.696;2023-05-07T12:43:32;19.90;99.90
65692;DHT22;52411;52.716;6.696;2023-05-07T12:46:03;19.70;99.90
65692;DHT22;52411;52.716;6.696;2023-05-07T12:48:28;19.80;99.90
65692;DHT22;52411;52.716;6.696;2023-05-07T12:50:54;19.80;99.90
65692;DHT22;52411;52.716;6.696;2023-05-07T12:53:20;19.80;99.90
65692;DHT22;52411;52.716;6.696;2023-05-07T12:55:47;19.80;99.90
65692;DHT22;52411;52.716;6.696;2023-05-07T12:58:19;19.90;99.90
65692;DHT22;52411;52.716;6.696;2023-05-07T13:00:47;19.90;99.90
65692;DHT22;52411;52.716;6.696;2023-05-07T13:03:16;20.00;99.90
65692;DHT22;52411;52.716;6.696;2023-05-07T13:05:45;20.20;99.90
65692;DHT22;52411;52.716;6.696;2023-05-07T13:08:11;20.40;99.90
65692;DHT22;52411;52.716;6.696;2023-05-07T13:10:36;20.60;99.90
65692;DHT22;52411;52.716;6.696;2023-05-07T13:13:02;20.70;99.90
65692;DHT22;52411;52.716;6.696;2023-05-07T13:15:28;20.80;99.90
65692;DHT22;52411;52.716;6.696;2023-05-07T13:17:53;20.90;99.90
65692;DHT22;52411;52.716;6.696;2023-05-07T13:20:19;20.70;99.90
65692;DHT22;52411;52.716;6.696;2023-05-07T13:22:44;20.60;99.90
65692;DHT22;52411;52.716;6.696;2023-05-07T13:25:10;20.40;99.90
65692;DHT22;52411;52.716;6.696;2023-05-07T13:27:35;20.50;99.90
65692;DHT22;52411;52.716;6.696;2023-05-07T13:30:02;20.10;99.90
65692;DHT22;52411;52.716;6.696;2023-05-07T13:32:28;20.10;99.90
65692;DHT22;52411;52.716;6.696;2023-05-07T13:34:53;20.10;99.90
65692;DHT22;52411;52.716;6.696;2023-05-07T13:37:19;20.00;99.90
65692;DHT22;52411;52.716;6.696;2023-05-07T13:39:46;20.10;99.90
65692;DHT22;52411;52.716;6.696;2023-05-07T13:42:12;20.20;99.90
65692;DHT22;52411;52.716;6.696;2023-05-07T13:44:37;20.20;99.90
65692;DHT22;52411;52.716;6.696;2023-05-07T13:47:03;20.20;99.90
65692;DHT22;52411;52.716;6.696;2023-05-07T13:49:28;20.10;99.90
65692;DHT22;52411;52.716;6.696;2023-05-07T13:51:54;20.10;99.90
65692;DHT22;52411;52.716;6.696;2023-05-07T13:54:20;19.90;99.90
65692;DHT22;52411;52.716;6.696;2023-05-07T13:56:46;19.80;99.90
65692;DHT22;52411;52.716;6.696;2023-05-07T13:59:11;19.70;99.90
65692;DHT22;52411;52.716;6.696;2023-05-07T14:01:39;19.70;99.90
65692;DHT22;52411;52.716;6.696;2023-05-07T14:04:05;19.60;99.90
65692;DHT22;52411;52.716;6.696;2023-05-07T14:06:32;19.60;99.90
65692;DHT22;52411;52.716;6.696;2023-05-07T14:08:58;19.40;99.90
65692;DHT22;52411;52.716;6.696;2023-05-07T14:11:23;19.40;99.90
65692;DHT22;52411;52.716;6.696;2023-05-07T14:13:49;19.40;99.90
65692;DHT22;52411;52.716;6.696;2023-05-07T14:16:14;19.50;99.90
65692;DHT22;52411;52.716;6.696;2023-05-07T14:18:40;19.50;99.90
65692;DHT22;52411;52.716;6.696;2023-05-07T14:21:08;19.70;99.90
65692;DHT22;52411;52.716;6.696;2023-05-07T14:23:35;19.80;99.90
65692;DHT22;52411;52.716;6.696;2023-05-07T14:26:00;19.80;99.90
65692;DHT22;52411;52.716;6.696;2023-05-07T14:28:26;19.90;99.90
65692;DHT22;52411;52.716;6.696;2023-05-07T14:30:54;20.00;99.90
65692;DHT22;52411;52.716;6.696;2023-05-07T14:33:19;19.90;99.90
65692;DHT22;52411;52.716;6.696;2023-05-07T14:35:45;19.90;99.90
65692;DHT22;52411;52.716;6.696;2023-05-07T14:38:14;19.90;99.90
65692;DHT22;52411;52.716;6.696;2023-05-07T14:40:39;20.00;99.90
65692;DHT22;52411;52.716;6.696;2023-05-07T14:43:05;20.00;99.90
65692;DHT22;52411;52.716;6.696;2023-05-07T14:45:30;20.00;99.90
65692;DHT22;52411;52.716;6.696;2023-05-07T14:47:56;19.90;99.90
65692;DHT22;52411;52.716;6.696;2023-05-07T14:50:21;19.80;99.90
65692;DHT22;52411;52.716;6.696;2023-05-07T14:52:47;19.70;99.90
65692;DHT22;52411;52.716;6.696;2023-05-07T14:55:12;19.80;99.90
65692;DHT22;52411;52.716;6.696;2023-05-07T14:57:38;19.80;99.90
65692;DHT22;52411;52.716;6.696;2023-05-07T15:00:03;19.80;99.90
65692;DHT22;52411;52.716;6.696;2023-05-07T15:02:29;19.80;99.90
65692;DHT22;52411;52.716;6.696;2023-05-07T15:04:55;19.70;99.90
65692;DHT22;52411;52.716;6.696;2023-05-07T15:07:20;19.70;99.90
65692;DHT22;52411;52.716;6.696;2023-05-07T15:09:46;19.60;99.90
65692;DHT22;52411;52.716;6.696;2023-05-07T15:12:12;19.70;99.90
65692;DHT22;52411;52.716;6.696;2023-05-07T15:14:38;19.80;99.90
65692;DHT22;52411;52.716;6.696;2023-05-07T15:17:04;19.90;99.90
65692;DHT22;52411;52.716;6.696;2023-05-07T15:19:29;20.10;99.90
65692;DHT22;52411;52.716;6.696;2023-05-07T15:21:56;20.00;99.90
65692;DHT22;52411;52.716;6.696;2023-05-07T15:24:23;20.00;99.90
65692;DHT22;52411;52.716;6.696;2023-05-07T15:26:48;19.80;99.90
65692;DHT22;52411;52.716;6.696;2023-05-07T15:29:14;19.60;99.90
65692;DHT22;52411;52.716;6.696;2023-05-07T15:31:39;19.50;99.90
65692;DHT22;52411;52.716;6.696;2023-05-07T15:34:05;19.50;99.90
65692;DHT22;52411;52.716;6.696;2023-05-07T15:36:30;19.60;99.90
65692;DHT22;52411;52.716;6.696;2023-05-07T15:38:56;19.60;99.90
65692;DHT22;52411;52.716;6.696;2023-05-07T15:41:21;19.50;99.90